createdAt,value
2022-12-22T00:02:27.993Z,10.85
2022-12-22T00:05:13.166Z,14.18
2022-12-22T00:07:58.737Z,15.27
2022-12-22T00:10:44.128Z,14.00
2022-12-22T00:13:32.152Z,12.18
2022-12-22T00:16:17.457Z,15.73
2022-12-22T00:19:03.253Z,14.88
2022-12-22T00:21:49.823Z,14.40
2022-12-22T00:24:35.002Z,14.38
2022-12-22T00:27:20.388Z,12.10
2022-12-22T00:30:05.593Z,12.35
2022-12-22T00:32:54.687Z,13.77
2022-12-22T00:35:43.617Z,12.68
2022-12-22T00:38:38.676Z,14.85
2022-12-22T00:41:25.003Z,14.77
2022-12-22T00:44:10.133Z,12.90
2022-12-22T00:46:58.687Z,12.98
2022-12-22T00:49:46.781Z,12.63
2022-12-22T00:52:33.121Z,16.17
2022-12-22T00:55:19.107Z,15.27
2022-12-22T00:58:05.098Z,16.75
2022-12-22T01:00:50.585Z,16.10
2022-12-22T01:03:35.971Z,14.30
2022-12-22T01:06:22.354Z,13.00
2022-12-22T01:09:07.790Z,15.75
2022-12-22T01:11:53.942Z,15.57
2022-12-22T01:14:39.578Z,13.52
2022-12-22T01:17:24.756Z,10.50
2022-12-22T01:20:10.175Z,13.38
2022-12-22T01:22:55.572Z,14.82
2022-12-22T01:25:40.861Z,12.27
2022-12-22T01:28:33.859Z,14.80
2022-12-22T01:31:42.807Z,16.05
2022-12-22T01:34:28.167Z,16.40
2022-12-22T01:37:13.473Z,16.73
2022-12-22T01:39:58.784Z,14.40
2022-12-22T01:42:46.539Z,17.85
2022-12-22T01:45:46.750Z,15.88
2022-12-22T01:48:35.537Z,16.95
2022-12-22T01:51:28.887Z,16.90
2022-12-22T01:54:16.312Z,15.60
2022-12-22T01:57:03.995Z,15.00
2022-12-22T01:59:49.817Z,17.95
2022-12-22T02:02:37.136Z,18.02
2022-12-22T02:05:24.975Z,17.17
2022-12-22T02:08:22.307Z,16.52
2022-12-22T02:11:26.039Z,16.15
2022-12-22T02:17:53.216Z,16.77
2022-12-22T02:21:12.726Z,16.15
2022-12-22T02:24:43.022Z,17.60
2022-12-22T02:27:30.762Z,16.70
2022-12-22T02:30:26.265Z,17.08
2022-12-22T02:33:13.244Z,17.05
2022-12-22T02:36:49.770Z,15.70
2022-12-22T02:40:17.200Z,16.00
2022-12-22T02:43:40.419Z,13.43
2022-12-22T02:46:44.118Z,16.02
2022-12-22T02:52:50.038Z,14.70
2022-12-22T02:55:36.758Z,15.98
2022-12-22T02:58:22.121Z,15.07
2022-12-22T03:01:07.891Z,15.63
2022-12-22T03:03:53.107Z,15.75
2022-12-22T03:06:38.248Z,14.30
2022-12-22T03:09:23.370Z,14.68
2022-12-22T03:12:08.579Z,13.50
2022-12-22T03:14:53.785Z,13.98
2022-12-22T03:17:39.166Z,14.43
2022-12-22T03:20:25.893Z,14.35
2022-12-22T03:23:11.289Z,15.73
2022-12-22T03:25:53.949Z,15.13
2022-12-22T03:28:27.403Z,12.77
2022-12-22T03:31:06.183Z,14.30
2022-12-22T03:33:33.582Z,14.38
2022-12-22T03:36:01.067Z,14.85
2022-12-22T03:38:28.687Z,13.93
2022-12-22T03:40:56.020Z,13.85
2022-12-22T03:43:41.681Z,14.45
2022-12-22T03:46:16.341Z,12.90
2022-12-22T03:48:44.520Z,11.35
2022-12-22T03:51:11.486Z,13.18
2022-12-22T03:53:38.253Z,12.93
2022-12-22T03:56:07.977Z,13.45
2022-12-22T03:58:35.014Z,13.10
2022-12-22T04:01:07.073Z,13.63
2022-12-22T04:03:33.942Z,10.15
2022-12-22T04:06:01.708Z,12.38
2022-12-22T04:08:28.573Z,11.98
2022-12-22T04:11:13.719Z,10.38
2022-12-22T04:13:40.538Z,12.70
2022-12-22T04:16:07.494Z,10.20
2022-12-22T04:18:34.305Z,10.48
2022-12-22T04:21:01.185Z,11.20
2022-12-22T04:23:27.967Z,12.68
2022-12-22T04:25:54.830Z,13.95
2022-12-22T04:28:21.685Z,13.75
2022-12-22T04:30:51.054Z,12.00
2022-12-22T04:33:18.200Z,11.50
2022-12-22T04:35:45.036Z,12.00
2022-12-22T04:38:12.001Z,14.00
2022-12-22T04:40:38.802Z,12.02
2022-12-22T04:43:05.602Z,12.85
2022-12-22T04:45:32.571Z,12.70
2022-12-22T04:47:59.399Z,13.93
2022-12-22T04:50:26.319Z,8.98
2022-12-22T04:52:53.248Z,8.85
2022-12-22T04:55:20.071Z,9.93
2022-12-22T04:57:46.827Z,8.10
2022-12-22T05:00:14.903Z,11.75
2022-12-22T05:02:41.837Z,9.85
2022-12-22T05:05:09.295Z,9.88
2022-12-22T05:07:36.548Z,11.43
2022-12-22T05:10:05.558Z,10.05
2022-12-22T05:12:50.572Z,11.48
2022-12-22T05:15:17.484Z,8.70
2022-12-22T05:17:44.243Z,8.30
2022-12-22T05:20:11.362Z,12.05
2022-12-22T05:22:38.185Z,10.35
2022-12-22T05:25:05.887Z,11.32
2022-12-22T05:27:32.663Z,10.40
2022-12-22T05:29:59.437Z,9.98
2022-12-22T05:32:26.232Z,8.02
2022-12-22T05:34:53.032Z,7.07
2022-12-22T05:37:19.782Z,9.10
2022-12-22T05:39:46.560Z,11.52
2022-12-22T05:42:13.315Z,10.60
2022-12-22T05:44:40.051Z,10.77
2022-12-22T05:47:06.967Z,8.55
2022-12-22T05:49:33.728Z,8.93
2022-12-22T05:52:00.494Z,7.45
2022-12-22T05:54:27.260Z,10.98
2022-12-22T05:56:54.006Z,8.23
2022-12-22T05:59:20.797Z,6.70
2022-12-22T06:01:47.630Z,6.50
2022-12-22T06:04:14.548Z,9.85
2022-12-22T06:06:41.401Z,6.20
2022-12-22T06:09:08.220Z,10.45
2022-12-22T06:11:34.961Z,9.32
2022-12-22T06:14:01.730Z,6.97
2022-12-22T06:16:28.866Z,9.75
2022-12-22T06:18:55.645Z,6.28
2022-12-22T06:21:22.431Z,8.55
2022-12-22T06:23:49.246Z,6.95
2022-12-22T06:26:16.153Z,10.65
2022-12-22T06:28:42.959Z,8.93
2022-12-22T06:31:09.751Z,6.03
2022-12-22T06:33:36.669Z,9.38
2022-12-22T06:36:08.413Z,9.10
2022-12-22T06:38:35.437Z,8.77
2022-12-22T06:41:02.245Z,8.30
2022-12-22T06:43:29.016Z,7.43
2022-12-22T06:45:55.855Z,8.48
2022-12-22T06:48:22.787Z,8.75
2022-12-22T06:50:50.052Z,8.93
2022-12-22T06:53:16.981Z,11.35
2022-12-22T06:55:43.791Z,11.93
2022-12-22T06:58:10.839Z,11.20
2022-12-22T07:00:37.736Z,8.60
2022-12-22T07:03:04.679Z,7.30
2022-12-22T07:05:32.025Z,7.80
2022-12-22T07:08:05.755Z,8.70
2022-12-22T07:10:53.556Z,8.05
2022-12-22T07:13:20.444Z,7.13
2022-12-22T07:15:52.049Z,8.00
2022-12-22T07:18:24.596Z,7.13
2022-12-22T07:20:51.497Z,7.93
2022-12-22T07:23:18.327Z,7.53
2022-12-22T07:25:45.200Z,7.22
2022-12-22T07:28:18.399Z,7.13
2022-12-22T07:30:47.590Z,6.63
2022-12-22T07:33:14.354Z,8.25
2022-12-22T07:35:41.170Z,7.82
2022-12-22T07:38:07.973Z,7.32
2022-12-22T07:40:41.097Z,5.15
2022-12-22T07:43:08.518Z,6.07
2022-12-22T07:45:35.392Z,6.88
2022-12-22T07:48:23.843Z,6.53
2022-12-22T07:50:50.606Z,5.50
2022-12-22T07:53:17.336Z,6.30
2022-12-22T07:55:44.191Z,7.10
2022-12-22T07:58:10.934Z,6.43
2022-12-22T08:00:37.726Z,7.47
2022-12-22T08:03:04.652Z,10.27
2022-12-22T08:05:31.550Z,7.00
2022-12-22T08:07:58.328Z,8.23
2022-12-22T08:10:25.118Z,8.18
2022-12-22T08:12:51.956Z,9.40
2022-12-22T08:15:18.818Z,7.25
2022-12-22T08:17:45.590Z,6.85
2022-12-22T08:20:12.488Z,6.78
2022-12-22T08:22:39.233Z,6.00
2022-12-22T08:25:06.418Z,5.35
2022-12-22T08:27:45.820Z,7.20
2022-12-22T08:30:13.490Z,6.53
2022-12-22T08:32:41.131Z,6.78
2022-12-22T08:35:09.823Z,6.78
2022-12-22T08:37:41.489Z,7.05
2022-12-22T08:40:14.509Z,6.40
2022-12-22T08:42:41.955Z,7.05
2022-12-22T08:45:11.184Z,6.10
2022-12-22T08:47:38.112Z,5.78
2022-12-22T08:50:06.143Z,6.60
2022-12-22T08:52:32.909Z,6.43
2022-12-22T08:54:59.641Z,6.10
2022-12-22T08:57:26.724Z,6.32
2022-12-22T08:59:53.501Z,7.07
2022-12-22T09:02:20.438Z,5.80
2022-12-22T09:04:47.372Z,5.72
2022-12-22T09:07:14.423Z,6.22
2022-12-22T09:09:41.259Z,7.30
2022-12-22T09:12:08.464Z,7.20
2022-12-22T09:14:35.256Z,9.25
2022-12-22T09:17:02.150Z,7.63
2022-12-22T09:19:29.039Z,10.00
2022-12-22T09:21:55.838Z,10.63
2022-12-22T09:24:22.609Z,8.25
2022-12-22T09:26:49.554Z,7.38
2022-12-22T09:29:16.821Z,7.75
2022-12-22T09:31:44.602Z,16.83
2022-12-22T09:34:17.197Z,6.43
2022-12-22T09:36:45.127Z,4.68
2022-12-22T09:39:12.608Z,4.30
2022-12-22T09:41:48.304Z,4.18
2022-12-22T09:44:42.164Z,3.65
2022-12-22T09:47:25.676Z,3.90
2022-12-22T09:49:55.364Z,3.88
2022-12-22T09:52:51.851Z,3.10
2022-12-22T09:55:24.768Z,3.45
2022-12-22T09:57:55.543Z,3.15
2022-12-22T10:00:28.316Z,3.05
2022-12-22T10:03:29.300Z,3.20
2022-12-22T10:06:12.731Z,3.08
2022-12-22T10:11:13.639Z,3.08
2022-12-22T10:13:40.507Z,3.45
2022-12-22T10:16:28.361Z,2.92
2022-12-22T10:19:11.709Z,3.40
2022-12-22T10:21:46.430Z,3.72
2022-12-22T10:24:29.253Z,3.88
2022-12-22T10:26:59.136Z,4.20
2022-12-22T10:29:27.250Z,4.72
2022-12-22T10:32:04.823Z,3.80
2022-12-22T10:34:31.928Z,3.97
2022-12-22T10:37:04.112Z,5.38
2022-12-22T10:39:36.737Z,3.83
2022-12-22T10:42:14.050Z,4.57
2022-12-22T10:44:46.580Z,4.20
2022-12-22T10:47:23.795Z,4.57
2022-12-22T10:52:30.475Z,4.35
2022-12-22T10:55:35.928Z,3.55
2022-12-22T11:00:45.084Z,3.20
2022-12-22T11:03:20.619Z,4.15
2022-12-22T11:05:49.383Z,4.55
2022-12-22T11:08:19.834Z,4.07
2022-12-22T11:11:01.114Z,3.38
2022-12-22T11:13:51.569Z,4.72
2022-12-22T11:16:52.137Z,3.60
2022-12-22T11:19:43.541Z,3.55
2022-12-22T11:22:34.978Z,2.67
2022-12-22T11:25:23.334Z,3.15
2022-12-22T11:28:17.733Z,3.00
2022-12-22T11:31:30.052Z,4.13
2022-12-22T11:34:05.265Z,3.25
2022-12-22T11:37:18.288Z,2.40
2022-12-22T11:40:15.800Z,2.40
2022-12-22T11:43:26.097Z,2.65
2022-12-22T11:46:32.913Z,2.35
2022-12-22T11:49:33.252Z,2.60
2022-12-22T11:52:03.275Z,2.70
2022-12-22T11:54:57.515Z,2.35
2022-12-22T11:57:44.325Z,2.30
2022-12-22T12:00:17.231Z,2.15
2022-12-22T12:03:18.528Z,2.58
2022-12-22T12:06:08.299Z,2.25
2022-12-22T12:08:49.680Z,2.13
2022-12-22T12:11:41.272Z,2.33
2022-12-22T12:14:29.234Z,1.98
2022-12-22T12:17:27.896Z,2.30
2022-12-22T12:20:31.603Z,1.90
2022-12-22T12:23:13.760Z,2.35
2022-12-22T12:26:24.747Z,1.90
2022-12-22T12:29:11.472Z,2.28
2022-12-22T12:32:16.995Z,2.70
2022-12-22T12:34:49.769Z,2.20
2022-12-22T12:37:29.605Z,2.30
2022-12-22T12:40:19.097Z,2.25
2022-12-22T12:42:47.872Z,2.80
2022-12-22T12:45:41.169Z,2.00
2022-12-22T12:48:25.944Z,2.30
2022-12-22T12:50:59.147Z,1.90
2022-12-22T12:53:28.698Z,1.67
2022-12-22T12:55:59.557Z,1.95
2022-12-22T12:58:35.673Z,2.20
2022-12-22T13:01:05.080Z,1.92
2022-12-22T13:04:01.645Z,2.10
2022-12-22T13:06:49.416Z,2.30
2022-12-22T13:09:50.047Z,2.08
2022-12-22T13:12:49.405Z,1.80
2022-12-22T13:15:38.237Z,1.83
2022-12-22T13:18:34.640Z,1.73
2022-12-22T13:21:51.032Z,1.80
2022-12-22T13:24:22.731Z,1.48
2022-12-22T13:26:44.821Z,1.55
2022-12-22T13:29:37.145Z,1.33
2022-12-22T13:32:20.832Z,2.42
2022-12-22T13:37:51.196Z,1.50
2022-12-22T13:40:22.795Z,1.50
2022-12-22T13:43:17.653Z,1.60
2022-12-22T13:45:46.871Z,1.90
2022-12-22T13:48:22.277Z,2.00
2022-12-22T13:51:00.017Z,2.20
2022-12-22T13:54:11.039Z,2.10
2022-12-22T13:56:40.061Z,2.20
2022-12-22T13:59:36.542Z,2.00
2022-12-22T14:02:09.361Z,1.83
2022-12-22T14:04:39.386Z,2.10
2022-12-22T14:07:14.306Z,2.25
2022-12-22T14:09:48.727Z,2.80
2022-12-22T14:12:24.088Z,3.30
2022-12-22T14:14:54.186Z,2.60
2022-12-22T14:17:31.198Z,1.90
2022-12-22T14:20:01.705Z,1.70
2022-12-22T14:22:33.106Z,2.35
2022-12-22T14:25:17.620Z,2.97
2022-12-22T14:27:50.747Z,2.50
2022-12-22T14:32:57.705Z,1.67
2022-12-22T14:35:29.151Z,2.08
2022-12-22T14:38:26.365Z,2.55
2022-12-22T14:40:57.815Z,1.90
2022-12-22T14:43:30.131Z,2.72
2022-12-22T14:46:07.854Z,2.47
2022-12-22T14:48:45.743Z,2.33
2022-12-22T14:51:18.871Z,2.00
2022-12-22T14:56:19.858Z,1.70
2022-12-22T14:58:48.677Z,1.83
2022-12-22T15:01:30.808Z,2.33
2022-12-22T15:04:05.761Z,5.43
2022-12-22T15:06:42.155Z,32.75
2022-12-22T15:09:13.399Z,24.13
2022-12-22T15:11:47.196Z,9.30
2022-12-22T15:14:33.508Z,6.88
2022-12-22T15:17:05.335Z,5.60
2022-12-22T15:19:36.875Z,3.20
2022-12-22T15:22:08.473Z,5.15
2022-12-22T15:24:35.273Z,2.63
2022-12-22T15:27:02.139Z,8.73
2022-12-22T15:29:28.975Z,4.00
2022-12-22T15:31:55.774Z,2.03
2022-12-22T15:34:26.465Z,3.20
2022-12-22T15:36:53.522Z,1.92
2022-12-22T15:39:22.070Z,1.70
2022-12-22T15:41:49.291Z,1.85
2022-12-22T15:44:16.633Z,2.10
2022-12-22T15:46:49.271Z,2.30
2022-12-22T15:49:21.440Z,2.03
2022-12-22T15:51:52.110Z,1.60
2022-12-22T15:54:19.811Z,1.52
2022-12-22T15:56:47.235Z,1.30
2022-12-22T15:59:18.597Z,2.05
2022-12-22T16:01:45.509Z,1.70
2022-12-22T16:04:12.528Z,1.55
2022-12-22T16:06:39.646Z,1.25
2022-12-22T16:09:17.119Z,1.58
2022-12-22T16:11:43.927Z,1.52
2022-12-22T16:14:13.835Z,1.48
2022-12-22T16:16:41.646Z,3.67
2022-12-22T16:19:16.758Z,1.80
2022-12-22T16:21:47.318Z,3.00
2022-12-22T16:24:30.143Z,1.80
2022-12-22T16:26:58.049Z,2.30
2022-12-22T16:29:25.706Z,2.80
2022-12-22T16:31:53.569Z,2.40
2022-12-22T16:34:20.542Z,2.20
2022-12-22T16:36:47.372Z,1.70
2022-12-22T16:39:14.228Z,1.92
2022-12-22T16:41:41.037Z,2.72
2022-12-22T16:46:54.007Z,1.50
2022-12-22T16:49:26.346Z,1.63
2022-12-22T16:51:54.721Z,3.67
2022-12-22T16:54:21.691Z,2.35
2022-12-22T16:56:51.175Z,2.40
2022-12-22T16:59:18.295Z,2.30
2022-12-22T17:01:55.766Z,2.13
2022-12-22T17:04:29.209Z,2.28
2022-12-22T17:06:58.777Z,2.35
2022-12-22T17:09:33.019Z,2.65
2022-12-22T17:12:01.104Z,1.73
2022-12-22T17:14:33.086Z,2.03
2022-12-22T17:17:00.164Z,1.80
2022-12-22T17:19:27.055Z,2.25
2022-12-22T17:21:55.283Z,1.85
2022-12-22T17:24:28.132Z,1.20
2022-12-22T17:27:02.040Z,3.38
2022-12-22T17:29:29.922Z,2.15
2022-12-22T17:31:57.201Z,1.40
2022-12-22T17:34:24.242Z,1.27
2022-12-22T17:36:51.535Z,1.27
2022-12-22T17:39:22.864Z,1.60
2022-12-22T17:41:56.247Z,1.20
2022-12-22T17:44:26.122Z,1.52
2022-12-22T17:46:53.342Z,2.10
2022-12-22T17:49:22.280Z,1.88
2022-12-22T17:51:49.822Z,1.35
2022-12-22T17:54:27.445Z,1.67
2022-12-22T17:57:02.900Z,2.13
2022-12-22T17:59:30.829Z,4.55
2022-12-22T18:01:57.896Z,3.25
2022-12-22T18:04:24.771Z,2.60
2022-12-22T18:06:51.761Z,2.00
2022-12-22T18:09:26.069Z,4.97
2022-12-22T18:11:53.957Z,1.95
2022-12-22T18:14:22.268Z,2.10
2022-12-22T18:16:49.369Z,2.50
2022-12-22T18:19:16.278Z,3.30
2022-12-22T18:21:43.948Z,5.63
2022-12-22T18:24:16.949Z,2.70
2022-12-22T18:26:43.923Z,1.70
2022-12-22T18:29:17.838Z,1.80
2022-12-22T18:31:45.010Z,1.75
2022-12-22T18:34:12.633Z,3.22
2022-12-22T18:36:42.346Z,2.33
2022-12-22T18:39:17.909Z,2.60
2022-12-22T18:41:45.091Z,3.33
2022-12-22T18:44:19.378Z,2.95
2022-12-22T18:46:48.668Z,2.85
2022-12-22T18:49:15.890Z,2.92
2022-12-22T18:51:44.779Z,2.90
2022-12-22T18:54:36.324Z,3.05
2022-12-22T18:57:03.769Z,2.70
2022-12-22T18:59:32.427Z,2.40
2022-12-22T19:02:29.808Z,2.50
2022-12-22T19:04:57.083Z,2.72
2022-12-22T19:07:25.673Z,2.67
2022-12-22T19:09:52.919Z,2.60
2022-12-22T19:12:25.641Z,2.10
2022-12-22T19:14:59.302Z,2.30
2022-12-22T19:17:28.811Z,2.60
2022-12-22T19:19:57.086Z,2.10
2022-12-22T19:22:23.952Z,2.80
2022-12-22T19:24:51.559Z,2.60
2022-12-22T19:27:24.750Z,3.13
2022-12-22T19:32:38.384Z,2.08
2022-12-22T19:35:13.703Z,3.50
2022-12-22T19:37:40.504Z,2.00
2022-12-22T19:40:08.275Z,1.90
2022-12-22T19:42:35.542Z,2.10
2022-12-22T19:45:10.330Z,5.00
2022-12-22T19:47:38.458Z,5.78
2022-12-22T19:50:14.324Z,6.45
2022-12-22T19:52:41.130Z,15.35
2022-12-22T19:55:08.282Z,5.38
2022-12-22T19:57:41.120Z,6.43
2022-12-22T20:00:20.292Z,6.00
2022-12-22T20:02:50.728Z,2.10
2022-12-22T20:05:23.748Z,1.63
2022-12-22T20:07:59.057Z,15.73
2022-12-22T20:10:28.893Z,2.90
2022-12-22T20:13:01.327Z,2.67
2022-12-22T20:15:37.272Z,2.78
2022-12-22T20:18:21.219Z,5.72
2022-12-22T20:20:59.610Z,2.13
2022-12-22T20:23:29.579Z,1.77
2022-12-22T20:26:02.582Z,1.80
2022-12-22T20:28:33.073Z,2.25
2022-12-22T20:31:02.339Z,1.40
2022-12-22T20:33:29.963Z,1.88
2022-12-22T20:35:58.676Z,2.20
2022-12-22T20:38:37.144Z,1.88
2022-12-22T20:41:08.071Z,1.83
2022-12-22T20:43:36.711Z,2.20
2022-12-22T20:46:16.373Z,1.35
2022-12-22T20:48:54.460Z,2.28
2022-12-22T20:51:22.379Z,2.08
2022-12-22T20:53:50.131Z,1.73
2022-12-22T20:56:38.725Z,1.98
2022-12-22T20:59:20.920Z,1.95
2022-12-22T21:01:49.675Z,2.10
2022-12-22T21:04:17.179Z,1.92
2022-12-22T21:06:49.599Z,7.47
2022-12-22T21:09:17.352Z,2.38
2022-12-22T21:11:44.351Z,2.60
2022-12-22T21:14:12.616Z,5.97
2022-12-22T21:16:40.405Z,3.45
2022-12-22T21:19:07.651Z,4.45
2022-12-22T21:21:34.777Z,2.78
2022-12-22T21:24:01.604Z,2.20
2022-12-22T21:26:36.560Z,1.90
2022-12-22T21:29:08.421Z,1.45
2022-12-22T21:31:35.208Z,1.90
2022-12-22T21:34:02.108Z,2.50
2022-12-22T21:36:34.097Z,3.90
2022-12-22T21:39:06.553Z,5.85
2022-12-22T21:41:51.834Z,5.32
2022-12-22T21:44:18.660Z,3.17
2022-12-22T21:46:46.957Z,11.07
2022-12-22T21:49:23.495Z,9.65
2022-12-22T21:51:52.427Z,11.75
2022-12-22T21:54:21.447Z,6.05
2022-12-22T21:56:49.468Z,11.32
2022-12-22T21:59:16.588Z,10.43
2022-12-22T22:01:45.329Z,6.38
2022-12-22T22:04:12.938Z,32.22
2022-12-22T22:06:39.743Z,14.75
2022-12-22T22:09:07.220Z,4.80
2022-12-22T22:11:57.955Z,3.53
2022-12-22T22:14:25.950Z,8.63
2022-12-22T22:16:52.832Z,5.97
2022-12-22T22:19:19.597Z,6.82
2022-12-22T22:21:46.977Z,7.18
2022-12-22T22:24:14.024Z,4.75
2022-12-22T22:26:40.890Z,3.55
2022-12-22T22:29:07.697Z,2.85
2022-12-22T22:31:34.606Z,2.95
2022-12-22T22:34:01.442Z,3.10
2022-12-22T22:36:28.282Z,2.42
2022-12-22T22:38:55.410Z,3.35
2022-12-22T22:41:22.279Z,1.70
2022-12-22T22:43:49.097Z,2.90
2022-12-22T22:46:16.014Z,1.35
2022-12-22T22:48:42.871Z,2.25
2022-12-22T22:51:10.928Z,2.80
2022-12-22T22:53:37.681Z,1.88
2022-12-22T22:56:04.909Z,2.50
2022-12-22T22:58:31.721Z,2.67
2022-12-22T23:01:10.801Z,2.47
2022-12-22T23:03:37.840Z,2.45
2022-12-22T23:06:12.647Z,2.00
2022-12-22T23:08:39.505Z,2.42
2022-12-22T23:11:13.107Z,2.60
2022-12-22T23:13:39.970Z,2.92
2022-12-22T23:16:06.811Z,2.60
2022-12-22T23:18:33.934Z,2.83
2022-12-22T23:21:03.662Z,2.50
2022-12-22T23:23:32.095Z,2.83
2022-12-22T23:25:59.272Z,2.20
2022-12-22T23:28:26.281Z,3.75
2022-12-22T23:30:53.775Z,2.97
2022-12-22T23:33:21.273Z,2.80
2022-12-22T23:35:49.905Z,3.08
2022-12-22T23:38:20.392Z,3.50
2022-12-22T23:40:52.915Z,3.70
2022-12-22T23:43:20.602Z,4.50
2022-12-22T23:45:47.370Z,3.70
2022-12-22T23:48:15.274Z,4.70
2022-12-22T23:50:45.812Z,3.08
2022-12-22T23:53:12.661Z,3.67
2022-12-22T23:55:47.785Z,3.78
2022-12-22T23:58:16.067Z,3.35
